Time;durP1;ratioP1;P1;durP2;ratioP2;P2;SDS_P1;SDS_P2;PMS_P1;PMS_P2;Temp;Humidity;BMP_temperature;BMP_pressure;BME280_temperature;BME280_humidity;BME280_pressure;Samples;Min_cycle;Max_cycle;Signal;HPM_P1;HPM_P2
2024/03/23 00:00:29;;;;;;;8.93;5.35;;;;;;;;;;5003643;28;20536;-57
2024/03/23 00:02:59;;;;;;;10.15;5.60;;;;;;;;;;5011578;28;20054;-62
2024/03/23 00:05:30;;;;;;;6.97;4.50;;;;;;;;;;5010170;28;20473;-57
2024/03/23 00:08:00;;;;;;;9.93;5.63;;;;;;;;;;5004213;28;20660;-57
2024/03/23 00:10:31;;;;;;;10.27;5.10;;;;;;;;;;5015200;28;20041;-57
2024/03/23 00:13:02;;;;;;;9.48;5.68;;;;;;;;;;5009716;28;20438;-52
2024/03/23 00:15:34;;;;;;;8.57;4.95;;;;;;;;;;5011664;28;20105;-52
2024/03/23 00:18:03;;;;;;;9.32;5.65;;;;;;;;;;5009637;28;20125;-58
2024/03/23 00:20:34;;;;;;;7.63;5.17;;;;;;;;;;5015638;28;20065;-58
2024/03/23 00:23:04;;;;;;;7.78;5.03;;;;;;;;;;5014940;28;20475;-57
2024/03/23 00:25:35;;;;;;;8.17;4.10;;;;;;;;;;5009417;28;20049;-56
2024/03/23 00:28:02;;;;;;;;;;;;;;;;;;5010459;28;20054;-57
2024/03/23 00:30:36;;;;;;;6.15;4.00;;;;;;;;;;5017262;28;19932;-55
2024/03/23 00:33:05;;;;;;;7.88;4.15;;;;;;;;;;5015838;28;20108;-56
2024/03/23 00:35:36;;;;;;;8.17;4.10;;;;;;;;;;5022288;28;20590;-57
2024/03/23 00:38:06;;;;;;;6.90;4.13;;;;;;;;;;5005546;28;20072;-55
2024/03/23 00:40:36;;;;;;;7.63;4.50;;;;;;;;;;5007019;28;20565;-56
2024/03/23 00:43:04;;;;;;;;;;;;;;;;;;5003410;28;20050;-58
2024/03/23 00:45:34;;;;;;;6.28;3.67;;;;;;;;;;5026369;28;19925;-58
2024/03/23 00:48:02;;;;;;;;;;;;;;;;;;5009864;28;20056;-55
2024/03/23 00:50:33;;;;;;;5.78;3.20;;;;;;;;;;5026122;28;19921;-53
2024/03/23 00:53:01;;;;;;;6.07;3.28;;;;;;;;;;5010312;28;20077;-55
2024/03/23 00:55:28;;;;;;;6.05;3.53;;;;;;;;;;5006022;28;20077;-55
2024/03/23 00:57:53;;;;;;;6.45;3.05;;;;;;;;;;5003257;28;20494;-58
2024/03/23 01:00:20;;;;;;;5.10;3.33;;;;;;;;;;5011731;28;20128;-58
2024/03/23 01:02:46;;;;;;;5.82;3.03;;;;;;;;;;5006008;28;20079;-57
2024/03/23 01:05:13;;;;;;;4.43;3.00;;;;;;;;;;5012077;28;20129;-55
2024/03/23 01:07:39;;;;;;;6.63;3.28;;;;;;;;;;5004921;28;20522;-56
2024/03/23 01:10:08;;;;;;;5.68;2.80;;;;;;;;;;5003577;28;20129;-54
2024/03/23 01:12:34;;;;;;;7.10;3.17;;;;;;;;;;5012738;28;20053;-56
2024/03/23 01:15:01;;;;;;;5.10;2.72;;;;;;;;;;5012292;28;20434;-55
2024/03/23 01:17:27;;;;;;;7.00;3.08;;;;;;;;;;5011798;28;20489;-51
2024/03/23 01:19:54;;;;;;;4.25;2.70;;;;;;;;;;5002684;28;20050;-56
2024/03/23 01:22:19;;;;;;;5.22;3.28;;;;;;;;;;5004769;28;20058;-52
2024/03/23 01:24:47;;;;;;;4.25;2.65;;;;;;;;;;5023272;28;20041;-59
2024/03/23 01:27:14;;;;;;;5.90;2.97;;;;;;;;;;5020620;28;20435;-55
2024/03/23 01:29:41;;;;;;;3.88;2.55;;;;;;;;;;5012412;28;20490;-57
2024/03/23 01:32:07;;;;;;;4.97;2.60;;;;;;;;;;5004220;28;20050;-55
2024/03/23 01:34:34;;;;;;;5.43;2.83;;;;;;;;;;5011942;28;20064;-55
2024/03/23 01:37:00;;;;;;;4.25;2.42;;;;;;;;;;5014536;28;20489;-56
2024/03/23 01:39:27;;;;;;;5.88;2.70;;;;;;;;;;5026122;28;20368;-57
2024/03/23 01:41:53;;;;;;;5.90;2.60;;;;;;;;;;5012962;28;20133;-55
2024/03/23 01:44:22;;;;;;;5.72;3.17;;;;;;;;;;5023829;28;20069;-53
2024/03/23 01:46:48;;;;;;;5.82;2.90;;;;;;;;;;5031397;28;20057;-57
2024/03/23 01:49:15;;;;;;;5.32;2.80;;;;;;;;;;5019281;28;20101;-50
2024/03/23 01:51:41;;;;;;;4.00;2.67;;;;;;;;;;5019144;28;20060;-56
2024/03/23 01:54:09;;;;;;;4.95;3.03;;;;;;;;;;5020074;28;20050;-55
2024/03/23 01:56:35;;;;;;;4.03;2.55;;;;;;;;;;5012464;28;20417;-56
2024/03/23 01:59:02;;;;;;;5.93;3.10;;;;;;;;;;5030505;28;20049;-55
2024/03/23 02:01:29;;;;;;;6.45;3.20;;;;;;;;;;5017382;28;20050;-55
2024/03/23 02:03:56;;;;;;;6.35;3.60;;;;;;;;;;4996563;28;20518;-57
2024/03/23 02:06:24;;;;;;;5.65;3.35;;;;;;;;;;5024167;28;20050;-54
2024/03/23 02:08:51;;;;;;;5.30;3.03;;;;;;;;;;5034571;28;20099;-54
2024/03/23 02:11:17;;;;;;;4.47;3.65;;;;;;;;;;5011235;28;20061;-57
2024/03/23 02:13:44;;;;;;;5.07;2.95;;;;;;;;;;5018264;28;20091;-52
2024/03/23 02:16:09;;;;;;;7.53;3.25;;;;;;;;;;5015241;28;20097;-55
2024/03/23 02:18:38;;;;;;;4.90;2.95;;;;;;;;;;5022812;28;20057;-55
2024/03/23 02:21:04;;;;;;;6.55;3.10;;;;;;;;;;5024296;28;20046;-54
2024/03/23 02:23:32;;;;;;;4.40;2.75;;;;;;;;;;5015248;28;20054;-53
2024/03/23 02:25:58;;;;;;;6.13;3.58;;;;;;;;;;5015297;28;20128;-52
2024/03/23 02:28:26;;;;;;;7.13;3.70;;;;;;;;;;5028764;28;20528;-55
2024/03/23 02:30:52;;;;;;;6.57;3.67;;;;;;;;;;5026071;28;20053;-52
2024/03/23 02:33:19;;;;;;;7.90;3.50;;;;;;;;;;5015452;28;20049;-53
2024/03/23 02:35:46;;;;;;;6.85;4.10;;;;;;;;;;5007150;28;20058;-58
2024/03/23 02:38:13;;;;;;;5.70;3.75;;;;;;;;;;4995785;28;20077;-58
2024/03/23 02:40:40;;;;;;;5.68;3.53;;;;;;;;;;5002734;28;20053;-58
2024/03/23 02:43:07;;;;;;;7.18;3.67;;;;;;;;;;5015056;28;20092;-58
2024/03/23 02:45:33;;;;;;;6.30;3.42;;;;;;;;;;5029806;28;20052;-56
2024/03/23 02:48:00;;;;;;;8.20;4.78;;;;;;;;;;5023875;28;20053;-58
2024/03/23 02:50:26;;;;;;;6.55;4.00;;;;;;;;;;5001651;28;20531;-56
2024/03/23 02:52:53;;;;;;;7.07;3.80;;;;;;;;;;5004178;28;20128;-52
2024/03/23 02:55:19;;;;;;;7.57;4.47;;;;;;;;;;5010352;28;20438;-57
2024/03/23 02:57:47;;;;;;;5.75;3.20;;;;;;;;;;5011195;28;20046;-55
2024/03/23 03:00:14;;;;;;;6.70;3.58;;;;;;;;;;5026802;28;20050;-53
2024/03/23 03:02:41;;;;;;;5.88;3.75;;;;;;;;;;5026750;28;20056;-57
2024/03/23 03:05:08;;;;;;;5.72;3.65;;;;;;;;;;5014786;28;20505;-56
2024/03/23 03:07:37;;;;;;;6.82;3.63;;;;;;;;;;4999944;28;20498;-56
2024/03/23 03:10:06;;;;;;;7.03;3.78;;;;;;;;;;4997692;28;20065;-55
2024/03/23 03:12:33;;;;;;;5.68;3.50;;;;;;;;;;5023040;28;20050;-57
2024/03/23 03:15:01;;;;;;;7.30;4.20;;;;;;;;;;5012712;28;20056;-57
2024/03/23 03:17:28;;;;;;;5.78;4.32;;;;;;;;;;4994659;28;20062;-52
2024/03/23 03:19:55;;;;;;;6.82;4.28;;;;;;;;;;5012044;28;20061;-58
2024/03/23 03:22:22;;;;;;;8.00;3.97;;;;;;;;;;5014164;28;20116;-58
2024/03/23 03:24:48;;;;;;;6.68;4.65;;;;;;;;;;5014235;28;20454;-57
2024/03/23 03:27:15;;;;;;;8.13;4.88;;;;;;;;;;5014039;28;20133;-57
2024/03/23 03:29:43;;;;;;;6.57;4.82;;;;;;;;;;5006768;28;20425;-57
2024/03/23 03:32:11;;;;;;;7.05;4.10;;;;;;;;;;5021975;28;20505;-54
2024/03/23 03:34:37;;;;;;;8.93;4.40;;;;;;;;;;5013973;28;20552;-55
2024/03/23 03:37:05;;;;;;;7.90;5.18;;;;;;;;;;5022202;28;20052;-57
2024/03/23 03:39:31;;;;;;;8.60;4.38;;;;;;;;;;5013974;28;20482;-58
2024/03/23 03:42:00;;;;;;;8.38;5.25;;;;;;;;;;5013673;28;20053;-59
2024/03/23 03:44:26;;;;;;;6.53;4.00;;;;;;;;;;5013704;28;20050;-57
2024/03/23 03:46:53;;;;;;;5.82;3.78;;;;;;;;;;5013722;28;20081;-54
2024/03/23 03:49:20;;;;;;;7.15;4.30;;;;;;;;;;5013731;28;20057;-58
2024/03/23 03:51:47;;;;;;;7.20;3.90;;;;;;;;;;5013682;28;20417;-57
2024/03/23 03:54:13;;;;;;;6.93;4.18;;;;;;;;;;5013672;28;20050;-56
2024/03/23 03:56:40;;;;;;;7.53;4.15;;;;;;;;;;5013908;28;20078;-59
2024/03/23 03:59:07;;;;;;;6.78;4.00;;;;;;;;;;5008585;28;20060;-60
2024/03/23 04:01:33;;;;;;;7.22;4.00;;;;;;;;;;5018841;28;20493;-58
2024/03/23 04:03:59;;;;;;;6.65;4.90;;;;;;;;;;5013650;28;20512;-58
2024/03/23 04:06:28;;;;;;;6.60;4.15;;;;;;;;;;5013519;28;20050;-59
2024/03/23 04:08:54;;;;;;;6.53;4.35;;;;;;;;;;5013261;28;20057;-56
2024/03/23 04:11:21;;;;;;;7.53;4.72;;;;;;;;;;5013409;28;20050;-57
2024/03/23 04:13:47;;;;;;;6.18;3.88;;;;;;;;;;5012992;28;20050;-57
2024/03/23 04:16:25;;;;;;;7.00;4.38;;;;;;;;;;5016923;28;20132;-57
2024/03/23 04:18:51;;;;;;;6.28;3.55;;;;;;;;;;5016542;28;20060;-55
2024/03/23 04:21:17;;;;;;;5.13;3.30;;;;;;;;;;5032719;28;20393;-57
2024/03/23 04:23:45;;;;;;;6.60;3.92;;;;;;;;;;5025268;28;20049;-56
2024/03/23 04:26:12;;;;;;;6.63;3.95;;;;;;;;;;5004645;28;20050;-56
2024/03/23 04:28:38;;;;;;;4.72;3.42;;;;;;;;;;5013118;28;20569;-54
2024/03/23 04:31:05;;;;;;;9.02;4.30;;;;;;;;;;5012223;28;20124;-55
2024/03/23 04:33:31;;;;;;;7.60;4.00;;;;;;;;;;5012728;28;20054;-54
2024/03/23 04:35:58;;;;;;;7.57;3.92;;;;;;;;;;5012870;28;20049;-56
2024/03/23 04:38:25;;;;;;;7.18;4.25;;;;;;;;;;5012859;28;20440;-51
2024/03/23 04:40:57;;;;;;;6.45;3.95;;;;;;;;;;5012206;28;20057;-54
2024/03/23 04:43:24;;;;;;;6.22;4.00;;;;;;;;;;4998013;28;20508;-51
2024/03/23 04:45:51;;;;;;;6.05;4.10;;;;;;;;;;5012812;28;20050;-55
2024/03/23 04:48:20;;;;;;;6.90;3.97;;;;;;;;;;5012426;28;20054;-55
2024/03/23 04:50:47;;;;;;;6.47;4.00;;;;;;;;;;5004280;28;20571;-54
2024/03/23 04:53:14;;;;;;;6.55;3.85;;;;;;;;;;5004794;28;20053;-56
2024/03/23 04:55:41;;;;;;;6.00;3.80;;;;;;;;;;5012772;28;20042;-59
2024/03/23 04:58:08;;;;;;;6.18;3.60;;;;;;;;;;5028879;28;20060;-58
2024/03/23 05:00:35;;;;;;;6.13;4.15;;;;;;;;;;5005697;28;20061;-59
2024/03/23 05:03:01;;;;;;;5.43;3.67;;;;;;;;;;5003596;28;20054;-58
2024/03/23 05:05:28;;;;;;;6.65;3.95;;;;;;;;;;4992959;28;20482;-56
2024/03/23 05:07:55;;;;;;;5.40;3.00;;;;;;;;;;5017223;28;20143;-57
2024/03/23 05:10:21;;;;;;;4.40;2.85;;;;;;;;;;5010547;28;20049;-57
2024/03/23 05:12:48;;;;;;;6.47;3.20;;;;;;;;;;5023087;28;20104;-57
2024/03/23 05:15:16;;;;;;;5.22;3.30;;;;;;;;;;5004558;28;20058;-52
2024/03/23 05:17:43;;;;;;;6.07;3.45;;;;;;;;;;5028010;28;20089;-56
2024/03/23 05:20:09;;;;;;;5.75;3.67;;;;;;;;;;5028844;28;20049;-55
2024/03/23 05:22:36;;;;;;;6.13;3.45;;;;;;;;;;5005324;28;20132;-55
2024/03/23 05:25:04;;;;;;;5.07;3.45;;;;;;;;;;5002341;28;20060;-56
2024/03/23 05:27:32;;;;;;;7.55;3.70;;;;;;;;;;5011786;28;20100;-57
2024/03/23 05:29:58;;;;;;;5.90;3.78;;;;;;;;;;5028126;28;20056;-56
2024/03/23 05:32:26;;;;;;;6.82;3.70;;;;;;;;;;5025220;28;20401;-58
2024/03/23 05:34:55;;;;;;;7.15;3.95;;;;;;;;;;5015593;28;20428;-54
2024/03/23 05:37:22;;;;;;;6.43;3.60;;;;;;;;;;5026819;28;20112;-58
2024/03/23 05:39:49;;;;;;;7.78;4.03;;;;;;;;;;5028627;28;20385;-55
2024/03/23 05:42:17;;;;;;;6.80;3.88;;;;;;;;;;5014230;28;20054;-59
2024/03/23 05:44:44;;;;;;;7.72;3.65;;;;;;;;;;5023765;28;20554;-55
2024/03/23 05:47:12;;;;;;;5.22;3.50;;;;;;;;;;5011743;28;20077;-58
2024/03/23 05:49:41;;;;;;;5.43;3.70;;;;;;;;;;5011668;28;20413;-57
2024/03/23 05:52:08;;;;;;;8.55;4.53;;;;;;;;;;5010031;28;20437;-58
2024/03/23 05:54:34;;;;;;;9.85;3.70;;;;;;;;;;4996018;28;20524;-56
2024/03/23 05:57:01;;;;;;;4.88;3.33;;;;;;;;;;5010408;28;20045;-56
2024/03/23 05:59:27;;;;;;;5.65;3.40;;;;;;;;;;5011432;28;20056;-54
2024/03/23 06:01:54;;;;;;;4.63;2.80;;;;;;;;;;5011737;28;20050;-57
2024/03/23 06:04:21;;;;;;;5.07;2.80;;;;;;;;;;5012118;28;20049;-54
2024/03/23 06:06:49;;;;;;;5.38;3.13;;;;;;;;;;5011996;28;20046;-52
2024/03/23 06:09:15;;;;;;;5.13;2.38;;;;;;;;;;5003345;28;20054;-57
2024/03/23 06:11:42;;;;;;;7.25;2.58;;;;;;;;;;5011816;28;20088;-57
2024/03/23 06:14:08;;;;;;;5.53;3.28;;;;;;;;;;5011732;28;20050;-59
2024/03/23 06:16:35;;;;;;;4.70;2.58;;;;;;;;;;5009862;28;20052;-57
2024/03/23 06:19:03;;;;;;;4.97;2.40;;;;;;;;;;5015719;28;20053;-54
2024/03/23 06:21:30;;;;;;;4.90;2.83;;;;;;;;;;5025319;28;20056;-56
2024/03/23 06:23:57;;;;;;;3.88;2.28;;;;;;;;;;5020190;28;20049;-57
2024/03/23 06:26:24;;;;;;;3.92;2.22;;;;;;;;;;5018082;28;20045;-57
2024/03/23 06:28:50;;;;;;;6.15;2.45;;;;;;;;;;5014844;28;20417;-58
2024/03/23 06:31:17;;;;;;;5.85;3.05;;;;;;;;;;5003160;28;20046;-56
2024/03/23 06:33:43;;;;;;;6.32;3.05;;;;;;;;;;5027043;28;20088;-54
2024/03/23 06:36:11;;;;;;;6.45;3.08;;;;;;;;;;5016613;28;20074;-57
2024/03/23 06:38:37;;;;;;;6.60;2.83;;;;;;;;;;5021485;28;20053;-55
2024/03/23 06:41:06;;;;;;;4.70;2.75;;;;;;;;;;5014629;28;20100;-56
2024/03/23 06:43:32;;;;;;;6.13;3.08;;;;;;;;;;5016044;28;20053;-54
2024/03/23 06:45:59;;;;;;;5.88;2.97;;;;;;;;;;5001623;28;20043;-57
2024/03/23 06:48:25;;;;;;;5.13;2.53;;;;;;;;;;5005012;28;20050;-58
2024/03/23 06:50:56;;;;;;;5.13;2.70;;;;;;;;;;5018352;28;20054;-55
2024/03/23 06:53:22;;;;;;;6.60;2.83;;;;;;;;;;4993181;28;20045;-52
2024/03/23 06:55:52;;;;;;;4.47;2.30;;;;;;;;;;5020345;28;20501;-58
2024/03/23 06:58:20;;;;;;;4.47;2.60;;;;;;;;;;5022225;28;20497;-51
2024/03/23 07:00:47;;;;;;;8.13;2.40;;;;;;;;;;5022823;28;20046;-58
2024/03/23 07:03:13;;;;;;;4.15;2.00;;;;;;;;;;5006546;28;20167;-57
2024/03/23 07:05:41;;;;;;;4.82;2.28;;;;;;;;;;5014787;28;20045;-56
2024/03/23 07:08:07;;;;;;;4.20;2.30;;;;;;;;;;4998256;28;20042;-53
2024/03/23 07:10:35;;;;;;;4.80;2.15;;;;;;;;;;5029321;28;20045;-57
2024/03/23 07:13:01;;;;;;;4.38;2.50;;;;;;;;;;5005878;28;20426;-55
2024/03/23 07:15:29;;;;;;;4.15;2.17;;;;;;;;;;5003296;28;20054;-56
2024/03/23 07:17:55;;;;;;;3.85;2.13;;;;;;;;;;5003448;28;20139;-56
2024/03/23 07:20:22;;;;;;;4.35;2.10;;;;;;;;;;5004427;28;20508;-57
2024/03/23 07:22:48;;;;;;;3.83;1.92;;;;;;;;;;5030407;28;20053;-55
2024/03/23 07:25:15;;;;;;;3.75;2.10;;;;;;;;;;5014258;28;20553;-54
2024/03/23 07:27:41;;;;;;;4.93;2.30;;;;;;;;;;5014551;28;20539;-52
2024/03/23 07:30:09;;;;;;;3.83;2.00;;;;;;;;;;5014498;28;20046;-51
2024/03/23 07:32:37;;;;;;;4.30;2.08;;;;;;;;;;5013833;28;20054;-56
2024/03/23 07:35:04;;;;;;;4.80;2.50;;;;;;;;;;5030577;28;20053;-56
2024/03/23 07:37:30;;;;;;;4.45;2.40;;;;;;;;;;5014525;28;20111;-59
2024/03/23 07:39:59;;;;;;;11.63;2.85;;;;;;;;;;5014935;28;20479;-51
2024/03/23 07:42:26;;;;;;;8.02;2.72;;;;;;;;;;5033787;28;20170;-57
2024/03/23 07:44:54;;;;;;;5.15;2.80;;;;;;;;;;5016503;28;20050;-55
2024/03/23 07:47:20;;;;;;;6.10;2.67;;;;;;;;;;5018639;28;20052;-54
2024/03/23 07:49:48;;;;;;;6.70;2.28;;;;;;;;;;5016607;28;20054;-54
2024/03/23 07:52:14;;;;;;;4.32;2.05;;;;;;;;;;5016971;28;20136;-54
2024/03/23 07:54:41;;;;;;;5.72;2.33;;;;;;;;;;5025022;28;20149;-53
2024/03/23 07:57:07;;;;;;;5.35;2.47;;;;;;;;;;5025372;28;20072;-56
2024/03/23 07:59:34;;;;;;;5.50;2.30;;;;;;;;;;5013022;28;20053;-56
2024/03/23 08:02:00;;;;;;;5.15;3.00;;;;;;;;;;5021447;28;20057;-54
2024/03/23 08:04:28;;;;;;;4.82;2.58;;;;;;;;;;5031087;28;20556;-54
2024/03/23 08:06:55;;;;;;;6.85;2.55;;;;;;;;;;5013237;28;20050;-53
2024/03/23 08:09:22;;;;;;;5.72;2.75;;;;;;;;;;5013832;28;20056;-55
2024/03/23 08:11:48;;;;;;;7.13;2.58;;;;;;;;;;5012758;28;20448;-54
2024/03/23 08:14:15;;;;;;;6.40;3.85;;;;;;;;;;5013822;28;20050;-55
2024/03/23 08:16:41;;;;;;;5.13;2.70;;;;;;;;;;5013933;28;20481;-58
2024/03/23 08:19:08;;;;;;;6.72;3.45;;;;;;;;;;5030435;28;20062;-54
2024/03/23 08:21:34;;;;;;;7.03;2.97;;;;;;;;;;5033720;28;20128;-56
2024/03/23 08:24:03;;;;;;;7.88;4.13;;;;;;;;;;5031798;28;20236;-58
2024/03/23 08:26:29;;;;;;;6.15;2.75;;;;;;;;;;5013391;28;20518;-57
2024/03/23 08:28:57;;;;;;;5.70;2.63;;;;;;;;;;5004754;28;20112;-57
2024/03/23 08:31:22;;;;;;;4.25;2.45;;;;;;;;;;5033177;28;20493;-55
2024/03/23 08:33:49;;;;;;;5.07;2.33;;;;;;;;;;5016045;28;20050;-53
2024/03/23 08:36:16;;;;;;;5.75;2.88;;;;;;;;;;5019448;28;20054;-57
2024/03/23 08:38:43;;;;;;;5.97;2.42;;;;;;;;;;5004873;28;20081;-58
2024/03/23 08:41:11;;;;;;;4.50;2.28;;;;;;;;;;5020902;28;20054;-54
2024/03/23 08:43:39;;;;;;;4.85;2.38;;;;;;;;;;5020705;28;20057;-56
2024/03/23 08:46:05;;;;;;;4.35;2.22;;;;;;;;;;5015037;28;20045;-58
2024/03/23 08:48:33;;;;;;;5.53;2.25;;;;;;;;;;5024448;28;20088;-58
2024/03/23 08:51:00;;;;;;;4.82;2.05;;;;;;;;;;5024291;28;20179;-56
2024/03/23 08:53:29;;;;;;;4.50;2.10;;;;;;;;;;5028248;28;20058;-52
2024/03/23 08:55:55;;;;;;;5.32;2.55;;;;;;;;;;5017979;28;20046;-58
2024/03/23 08:58:25;;;;;;;9.10;3.40;;;;;;;;;;5028016;28;20045;-54
2024/03/23 09:00:51;;;;;;;5.15;2.60;;;;;;;;;;5023903;28;20053;-57
2024/03/23 09:03:18;;;;;;;4.18;1.95;;;;;;;;;;5015449;28;20417;-55
2024/03/23 09:05:44;;;;;;;4.15;2.05;;;;;;;;;;5028077;28;20061;-57
2024/03/23 09:08:11;;;;;;;3.90;2.05;;;;;;;;;;5018710;28;20393;-55
2024/03/23 09:10:39;;;;;;;3.30;2.00;;;;;;;;;;5012034;28;20504;-57
2024/03/23 09:13:06;;;;;;;6.00;2.70;;;;;;;;;;5003567;28;20128;-52
2024/03/23 09:15:34;;;;;;;5.70;2.53;;;;;;;;;;5005848;28;20061;-56
2024/03/23 09:18:01;;;;;;;5.22;2.58;;;;;;;;;;5006819;28;20050;-55
2024/03/23 09:20:27;;;;;;;6.18;3.00;;;;;;;;;;5028254;28;20049;-54
2024/03/23 09:22:54;;;;;;;5.25;2.33;;;;;;;;;;5014521;28;20401;-52
2024/03/23 09:25:20;;;;;;;5.03;2.70;;;;;;;;;;5011961;28;20069;-57
2024/03/23 09:27:47;;;;;;;5.68;2.60;;;;;;;;;;5011799;28;20050;-55
2024/03/23 09:30:14;;;;;;;6.25;3.33;;;;;;;;;;5000608;28;20062;-57
2024/03/23 09:32:44;;;;;;;6.45;2.67;;;;;;;;;;5011006;28;20081;-55
2024/03/23 09:35:10;;;;;;;3.90;2.03;;;;;;;;;;5024086;28;20054;-57
2024/03/23 09:37:38;;;;;;;3.03;1.60;;;;;;;;;;5027621;28;20072;-54
2024/03/23 09:40:07;;;;;;;3.88;1.80;;;;;;;;;;5009382;28;20093;-55
2024/03/23 09:42:35;;;;;;;4.78;2.00;;;;;;;;;;5011635;28;20556;-56
2024/03/23 09:45:01;;;;;;;4.20;1.55;;;;;;;;;;5003552;28;20119;-55
2024/03/23 09:47:28;;;;;;;3.42;1.70;;;;;;;;;;5006474;28;20088;-56
2024/03/23 09:49:56;;;;;;;3.65;1.60;;;;;;;;;;5002473;28;20080;-56
2024/03/23 09:52:23;;;;;;;2.38;1.20;;;;;;;;;;5022927;28;20140;-52
2024/03/23 09:54:49;;;;;;;2.88;1.35;;;;;;;;;;5020627;28;20072;-57
2024/03/23 09:57:16;;;;;;;3.10;1.42;;;;;;;;;;5023943;28;20046;-56
2024/03/23 09:59:42;;;;;;;3.25;1.52;;;;;;;;;;5003820;28;20049;-56
2024/03/23 10:02:10;;;;;;;4.18;1.55;;;;;;;;;;5003866;28;20528;-56
2024/03/23 10:04:36;;;;;;;2.83;1.10;;;;;;;;;;4999104;28;20333;-56
2024/03/23 10:07:13;;;;;;;3.25;1.10;;;;;;;;;;5004644;28;20054;-59
2024/03/23 10:09:39;;;;;;;2.72;1.00;;;;;;;;;;5006781;28;20053;-57
2024/03/23 10:12:11;;;;;;;2.67;0.85;;;;;;;;;;4997947;28;20050;-57
2024/03/23 10:14:36;;;;;;;3.03;1.25;;;;;;;;;;5004491;28;20050;-52
2024/03/23 10:17:15;;;;;;;1.27;0.65;;;;;;;;;;5005205;28;20132;-52
2024/03/23 10:19:42;;;;;;;2.35;1.00;;;;;;;;;;5005788;28;20072;-57
2024/03/23 10:22:10;;;;;;;2.35;1.08;;;;;;;;;;5007232;28;20509;-58
2024/03/23 10:24:37;;;;;;;1.73;1.00;;;;;;;;;;5008035;28;20061;-57
2024/03/23 10:27:04;;;;;;;2.22;1.10;;;;;;;;;;5006673;28;20416;-52
2024/03/23 10:29:30;;;;;;;2.47;1.10;;;;;;;;;;5006720;28;20053;-56
2024/03/23 10:32:09;;;;;;;1.98;0.85;;;;;;;;;;5008347;28;20042;-56
2024/03/23 10:34:36;;;;;;;2.05;0.90;;;;;;;;;;5009145;28;20085;-57
2024/03/23 10:37:04;;;;;;;2.50;1.17;;;;;;;;;;5017820;28;20053;-58
2024/03/23 10:39:33;;;;;;;2.17;1.23;;;;;;;;;;5025680;28;20049;-56
2024/03/23 10:42:03;;;;;;;4.22;1.65;;;;;;;;;;5021706;28;20049;-57
2024/03/23 10:44:30;;;;;;;3.90;1.48;;;;;;;;;;5006877;28;20100;-56
2024/03/23 10:47:00;;;;;;;3.30;1.58;;;;;;;;;;5005516;28;20046;-56
2024/03/23 10:49:29;;;;;;;2.95;1.40;;;;;;;;;;5003226;28;20046;-58
2024/03/23 10:51:58;;;;;;;3.15;1.33;;;;;;;;;;5019553;28;20046;-57
2024/03/23 10:54:25;;;;;;;3.88;1.83;;;;;;;;;;5017107;28;20093;-56
2024/03/23 10:56:57;;;;;;;3.05;1.17;;;;;;;;;;5006930;28;20060;-56
2024/03/23 10:59:26;;;;;;;3.30;1.33;;;;;;;;;;5029223;28;20145;-56
2024/03/23 11:01:57;;;;;;;2.30;1.40;;;;;;;;;;5013966;28;20080;-52
2024/03/23 11:04:33;;;;;;;1.63;0.52;;;;;;;;;;5013392;28;20531;-55
2024/03/23 11:07:00;;;;;;;2.22;0.95;;;;;;;;;;5023184;28;20081;-50
2024/03/23 11:09:45;;;;;;;2.50;0.90;;;;;;;;;;5024327;28;20399;-56
2024/03/23 11:12:30;;;;;;;1.77;0.70;;;;;;;;;;5015480;28;20104;-55
2024/03/23 11:15:00;;;;;;;1.73;0.70;;;;;;;;;;5024595;28;20049;-55
2024/03/23 11:17:27;;;;;;;1.75;0.85;;;;;;;;;;5024867;28;20095;-55
2024/03/23 11:19:56;;;;;;;1.92;0.88;;;;;;;;;;5016559;28;20100;-56
2024/03/23 11:22:43;;;;;;;1.40;0.80;;;;;;;;;;5019102;28;20136;-53
2024/03/23 11:25:16;;;;;;;2.92;1.05;;;;;;;;;;5022990;28;20061;-56
2024/03/23 11:27:44;;;;;;;2.00;0.90;;;;;;;;;;5019957;28;20045;-57
2024/03/23 11:30:22;;;;;;;4.25;1.30;;;;;;;;;;5014168;28;20049;-59
2024/03/23 11:32:50;;;;;;;2.80;1.27;;;;;;;;;;5013841;28;20057;-51
2024/03/23 11:35:29;;;;;;;2.30;1.20;;;;;;;;;;5020281;28;20046;-60
2024/03/23 11:38:06;;;;;;;3.05;1.20;;;;;;;;;;5017963;28;20156;-61
2024/03/23 11:40:33;;;;;;;3.10;1.38;;;;;;;;;;5013788;28;20053;-63
2024/03/23 11:43:02;;;;;;;3.83;1.15;;;;;;;;;;5014003;28;20484;-59
2024/03/23 11:45:35;;;;;;;4.03;1.17;;;;;;;;;;5013562;28;20046;-58
2024/03/23 11:48:09;;;;;;;3.55;1.38;;;;;;;;;;5010092;28;20115;-58
2024/03/23 11:50:40;;;;;;;2.83;1.33;;;;;;;;;;5007903;28;20297;-54
2024/03/23 11:53:08;;;;;;;2.72;1.10;;;;;;;;;;5014100;28;20049;-55
2024/03/23 11:55:48;;;;;;;2.42;1.20;;;;;;;;;;5026370;28;20049;-54
2024/03/23 11:58:15;;;;;;;2.80;1.55;;;;;;;;;;5022051;28;20050;-56
2024/03/23 12:00:49;;;;;;;3.55;1.77;;;;;;;;;;5022463;28;20053;-56
2024/03/23 12:03:17;;;;;;;3.60;1.70;;;;;;;;;;5001105;28;20069;-57
2024/03/23 12:05:48;;;;;;;4.38;1.60;;;;;;;;;;5000573;28;20088;-55
2024/03/23 12:08:23;;;;;;;2.88;1.33;;;;;;;;;;5004886;28;20065;-56
2024/03/23 12:10:51;;;;;;;4.28;2.05;;;;;;;;;;5007645;28;20045;-53
2024/03/23 12:13:19;;;;;;;3.53;1.80;;;;;;;;;;5011823;28;20053;-53
2024/03/23 12:15:49;;;;;;;4.82;1.55;;;;;;;;;;5004661;28;20061;-56
2024/03/23 12:18:16;;;;;;;3.15;1.48;;;;;;;;;;5006189;28;20046;-56
2024/03/23 12:20:42;;;;;;;4.68;1.70;;;;;;;;;;5012283;28;20493;-56
2024/03/23 12:23:11;;;;;;;3.25;1.35;;;;;;;;;;5004253;28;20049;-56
2024/03/23 12:25:37;;;;;;;4.28;1.70;;;;;;;;;;5014734;28;20133;-57
2024/03/23 12:28:06;;;;;;;3.08;1.50;;;;;;;;;;5021191;28;20076;-54
2024/03/23 12:30:32;;;;;;;4.80;1.85;;;;;;;;;;5013627;28;20050;-56
2024/03/23 12:33:01;;;;;;;3.90;1.83;;;;;;;;;;5009010;28;20046;-56
2024/03/23 12:35:27;;;;;;;4.05;1.95;;;;;;;;;;5010280;28;20117;-58
2024/03/23 12:37:54;;;;;;;5.25;2.53;;;;;;;;;;5021059;28;20081;-55
2024/03/23 12:40:19;;;;;;;3.92;1.75;;;;;;;;;;5015330;28;20053;-57
2024/03/23 12:42:46;;;;;;;4.53;2.47;;;;;;;;;;5012591;28;20046;-57
2024/03/23 12:45:12;;;;;;;6.82;2.30;;;;;;;;;;5013568;28;20046;-55
2024/03/23 12:47:39;;;;;;;5.60;2.08;;;;;;;;;;5024571;28;20049;-56
2024/03/23 12:50:07;;;;;;;4.05;1.95;;;;;;;;;;5014496;28;20406;-56
2024/03/23 12:52:34;;;;;;;4.45;1.98;;;;;;;;;;5015736;28;20129;-52
2024/03/23 12:55:00;;;;;;;4.30;1.90;;;;;;;;;;5019495;28;20049;-55
2024/03/23 12:57:27;;;;;;;4.22;2.03;;;;;;;;;;5020408;28;20108;-57
2024/03/23 12:59:53;;;;;;;5.55;1.95;;;;;;;;;;5023612;28;20053;-56
2024/03/23 13:02:21;;;;;;;6.07;2.00;;;;;;;;;;5012285;28;20136;-58
2024/03/23 13:04:50;;;;;;;5.32;1.80;;;;;;;;;;5008992;28;20045;-58
2024/03/23 13:07:18;;;;;;;5.30;2.08;;;;;;;;;;5001322;28;20469;-58
2024/03/23 13:09:45;;;;;;;3.00;1.80;;;;;;;;;;5005816;28;20045;-56
2024/03/23 13:12:13;;;;;;;5.78;2.20;;;;;;;;;;5013456;28;20124;-55
2024/03/23 13:14:40;;;;;;;5.20;2.30;;;;;;;;;;5021393;28;20041;-58
2024/03/23 13:17:07;;;;;;;4.53;2.28;;;;;;;;;;5019569;28;20038;-57
2024/03/23 13:19:34;;;;;;;5.53;2.25;;;;;;;;;;5012358;28;20095;-55
2024/03/23 13:22:01;;;;;;;5.50;2.50;;;;;;;;;;5018045;28;20042;-57
2024/03/23 13:24:29;;;;;;;5.53;2.83;;;;;;;;;;5014346;28;20080;-56
2024/03/23 13:26:56;;;;;;;6.18;2.92;;;;;;;;;;5011169;28;20054;-55
2024/03/23 13:29:24;;;;;;;6.18;2.30;;;;;;;;;;5010293;28;20390;-57
2024/03/23 13:31:51;;;;;;;7.57;2.65;;;;;;;;;;5020197;28;20049;-58
2024/03/23 13:34:19;;;;;;;3.40;2.08;;;;;;;;;;5013014;28;20475;-55
2024/03/23 13:36:46;;;;;;;5.85;2.47;;;;;;;;;;5016570;28;20049;-56
2024/03/23 13:39:14;;;;;;;4.35;2.17;;;;;;;;;;5004153;28;20053;-56
2024/03/23 13:41:43;;;;;;;4.90;2.38;;;;;;;;;;5019176;28;20045;-56
2024/03/23 13:44:11;;;;;;;4.75;2.08;;;;;;;;;;5018982;28;20056;-56
2024/03/23 13:46:38;;;;;;;6.50;2.38;;;;;;;;;;5019569;28;20108;-55
2024/03/23 13:49:05;;;;;;;6.85;2.60;;;;;;;;;;5013942;28;20046;-56
2024/03/23 13:51:31;;;;;;;9.00;4.88;;;;;;;;;;5005880;28;20042;-57
2024/03/23 13:54:00;;;;;;;6.75;2.70;;;;;;;;;;5006721;28;20065;-55
2024/03/23 13:56:27;;;;;;;6.15;2.97;;;;;;;;;;5005976;28;20482;-57
2024/03/23 13:58:56;;;;;;;5.05;2.92;;;;;;;;;;5003568;28;20076;-57
2024/03/23 14:01:22;;;;;;;7.53;3.40;;;;;;;;;;5011109;28;20410;-55
2024/03/23 14:03:49;;;;;;;9.55;3.42;;;;;;;;;;5011145;28;20050;-56
2024/03/23 14:06:15;;;;;;;6.40;3.20;;;;;;;;;;5014026;28;20147;-55
2024/03/23 14:08:43;;;;;;;5.82;3.50;;;;;;;;;;5014645;28;20050;-57
2024/03/23 14:11:09;;;;;;;6.80;3.65;;;;;;;;;;5014855;28;20050;-57
2024/03/23 14:13:36;;;;;;;7.65;3.55;;;;;;;;;;5016461;28;20068;-56
2024/03/23 14:16:04;;;;;;;7.43;4.20;;;;;;;;;;5007114;28;20540;-53
2024/03/23 14:18:31;;;;;;;6.82;3.08;;;;;;;;;;5008847;28;20050;-58
2024/03/23 14:20:58;;;;;;;7.90;3.83;;;;;;;;;;5013558;28;20133;-57
2024/03/23 14:23:26;;;;;;;6.35;2.95;;;;;;;;;;5008613;28;20080;-57
2024/03/23 14:25:54;;;;;;;6.95;2.90;;;;;;;;;;5005521;28;20053;-58
2024/03/23 14:28:22;;;;;;;6.40;3.13;;;;;;;;;;5011012;28;20046;-55
2024/03/23 14:30:48;;;;;;;7.30;3.38;;;;;;;;;;5003349;28;20525;-57
2024/03/23 14:33:17;;;;;;;5.22;3.17;;;;;;;;;;5011229;28;20054;-56
2024/03/23 14:35:43;;;;;;;7.28;3.33;;;;;;;;;;5007518;28;20101;-57
2024/03/23 14:38:10;;;;;;;5.88;2.55;;;;;;;;;;5008708;28;20050;-57
2024/03/23 14:40:36;;;;;;;7.38;2.63;;;;;;;;;;5006415;28;20053;-55
2024/03/23 14:43:03;;;;;;;16.27;6.72;;;;;;;;;;5012260;28;20232;-50
2024/03/23 14:45:29;;;;;;;7.78;2.58;;;;;;;;;;5015348;28;20042;-56